createdAt,value
2023-07-24T00:02:24.871Z,15.44
2023-07-24T00:04:51.580Z,15.41
2023-07-24T00:07:18.598Z,15.44
2023-07-24T00:09:45.291Z,15.44
2023-07-24T00:12:11.998Z,15.39
2023-07-24T00:14:38.730Z,15.39
2023-07-24T00:17:05.771Z,15.51
2023-07-24T00:19:32.542Z,15.44
2023-07-24T00:21:59.152Z,15.40
2023-07-24T00:24:25.805Z,15.40
2023-07-24T00:26:52.405Z,15.39
2023-07-24T00:29:19.294Z,15.35
2023-07-24T00:31:45.931Z,15.32
2023-07-24T00:34:12.584Z,15.31
2023-07-24T00:36:39.621Z,15.27
2023-07-24T00:39:06.348Z,15.25
2023-07-24T00:41:34.170Z,15.22
2023-07-24T00:44:00.955Z,15.26
2023-07-24T00:46:31.468Z,15.24
2023-07-24T00:48:59.157Z,15.25
2023-07-24T00:51:28.697Z,15.22
2023-07-24T00:53:57.357Z,15.22
2023-07-24T00:56:24.365Z,15.15
2023-07-24T00:58:51.202Z,15.12
2023-07-24T01:01:20.928Z,15.20
2023-07-24T01:03:47.621Z,15.24
2023-07-24T01:06:14.232Z,15.22
2023-07-24T01:08:40.875Z,15.20
2023-07-24T01:11:17.042Z,15.16
2023-07-24T01:13:53.182Z,15.17
2023-07-24T01:16:20.550Z,15.15
2023-07-24T01:18:50.260Z,15.12
2023-07-24T01:21:21.614Z,15.15
2023-07-24T01:24:00.145Z,15.15
2023-07-24T01:26:27.430Z,15.12
2023-07-24T01:28:54.521Z,15.08
2023-07-24T01:31:21.383Z,15.10
2023-07-24T01:33:48.083Z,15.15
2023-07-24T01:36:15.780Z,15.12
2023-07-24T01:38:43.000Z,15.12
2023-07-24T01:41:10.144Z,15.11
2023-07-24T01:43:36.991Z,15.15
2023-07-24T01:46:03.849Z,15.17
2023-07-24T01:48:30.578Z,15.10
2023-07-24T01:50:57.207Z,15.18
2023-07-24T01:53:23.898Z,15.14
2023-07-24T01:55:50.618Z,15.06
2023-07-24T01:58:17.267Z,15.03
2023-07-24T02:00:44.552Z,15.03
2023-07-24T02:03:11.376Z,15.01
2023-07-24T02:05:38.160Z,15.04
2023-07-24T02:08:05.002Z,15.11
2023-07-24T02:10:31.764Z,15.10
2023-07-24T02:12:58.424Z,15.08
2023-07-24T02:15:25.005Z,15.05
2023-07-24T02:17:51.686Z,15.00
2023-07-24T02:20:18.435Z,15.10
2023-07-24T02:22:45.066Z,15.01
2023-07-24T02:25:11.672Z,14.89
2023-07-24T02:27:38.431Z,14.90
2023-07-24T02:30:05.612Z,14.89
2023-07-24T02:32:33.509Z,14.79
2023-07-24T02:35:00.272Z,14.84
2023-07-24T02:37:26.958Z,14.81
2023-07-24T02:39:54.429Z,14.82
2023-07-24T02:42:21.161Z,14.86
2023-07-24T02:44:47.788Z,14.81
2023-07-24T02:47:14.408Z,14.77
2023-07-24T02:49:41.365Z,14.74
2023-07-24T02:52:08.090Z,14.76
2023-07-24T02:54:34.744Z,14.70
2023-07-24T02:57:01.431Z,14.73
2023-07-24T02:59:28.113Z,14.79
2023-07-24T03:01:54.759Z,14.72
2023-07-24T03:04:21.335Z,14.75
2023-07-24T03:06:48.118Z,14.69
2023-07-24T03:09:14.840Z,14.67
2023-07-24T03:11:41.485Z,14.79
2023-07-24T03:14:08.364Z,14.77
2023-07-24T03:16:35.024Z,14.79
2023-07-24T03:19:01.782Z,14.70
2023-07-24T03:21:28.531Z,14.70
2023-07-24T03:23:55.216Z,14.58
2023-07-24T03:26:21.819Z,14.59
2023-07-24T03:28:48.643Z,14.56
2023-07-24T03:31:15.427Z,14.62
2023-07-24T03:33:42.135Z,14.60
2023-07-24T03:36:08.789Z,14.59
2023-07-24T03:38:35.949Z,14.57
2023-07-24T03:41:02.619Z,14.56
2023-07-24T03:43:29.247Z,14.60
2023-07-24T03:45:55.896Z,14.64
2023-07-24T03:48:22.658Z,14.63
2023-07-24T03:50:52.013Z,14.68
2023-07-24T03:53:18.659Z,14.79
2023-07-24T03:55:45.722Z,14.80
2023-07-24T03:58:12.457Z,14.75
2023-07-24T04:00:39.175Z,14.74
2023-07-24T04:03:05.948Z,14.76
2023-07-24T04:05:32.770Z,14.79
2023-07-24T04:07:59.789Z,14.88
2023-07-24T04:10:27.132Z,14.88
2023-07-24T04:12:53.824Z,14.93
2023-07-24T04:15:20.450Z,14.99
2023-07-24T04:17:47.300Z,15.06
2023-07-24T04:20:13.921Z,15.08
2023-07-24T04:22:40.996Z,15.09
2023-07-24T04:25:08.011Z,15.07
2023-07-24T04:27:34.701Z,15.12
2023-07-24T04:30:01.390Z,15.17
2023-07-24T04:32:28.898Z,15.22
2023-07-24T04:34:55.634Z,15.25
2023-07-24T04:37:22.295Z,15.38
2023-07-24T04:39:49.057Z,15.42
2023-07-24T04:42:15.908Z,15.54
2023-07-24T04:44:42.583Z,15.61
2023-07-24T04:47:09.232Z,15.73
2023-07-24T04:49:35.837Z,15.75
2023-07-24T04:52:02.527Z,15.73
2023-07-24T04:54:29.743Z,15.78
2023-07-24T04:56:56.498Z,15.87
2023-07-24T04:59:23.270Z,15.96
2023-07-24T05:01:49.944Z,16.04
2023-07-24T05:04:16.741Z,16.22
2023-07-24T05:06:43.506Z,16.33
2023-07-24T05:09:10.216Z,16.40
2023-07-24T05:11:37.987Z,16.48
2023-07-24T05:14:04.809Z,16.54
2023-07-24T05:16:32.753Z,16.62
2023-07-24T05:18:59.784Z,16.72
2023-07-24T05:21:27.010Z,16.72
2023-07-24T05:23:53.708Z,16.73
2023-07-24T05:26:20.331Z,16.83
2023-07-24T05:28:47.297Z,16.96
2023-07-24T05:31:13.909Z,17.01
2023-07-24T05:33:40.675Z,17.04
2023-07-24T05:36:07.332Z,16.91
2023-07-24T05:38:33.968Z,16.94
2023-07-24T05:41:03.699Z,17.13
2023-07-24T05:43:31.648Z,17.28
2023-07-24T05:45:58.947Z,17.13
2023-07-24T05:48:26.232Z,17.23
2023-07-24T05:50:52.990Z,17.34
2023-07-24T05:53:19.741Z,17.81
2023-07-24T05:55:46.398Z,18.11
2023-07-24T05:58:13.396Z,18.01
2023-07-24T06:00:40.057Z,18.05
2023-07-24T06:03:08.562Z,18.39
2023-07-24T06:05:35.958Z,18.07
2023-07-24T06:08:02.735Z,18.11
2023-07-24T06:10:29.585Z,17.98
2023-07-24T06:12:56.360Z,17.98
2023-07-24T06:15:23.049Z,18.08
2023-07-24T06:17:51.816Z,18.06
2023-07-24T06:20:20.886Z,18.03
2023-07-24T06:22:47.581Z,18.06
2023-07-24T06:25:14.175Z,18.13
2023-07-24T06:27:40.837Z,18.13
2023-07-24T06:30:14.836Z,18.22
2023-07-24T06:32:43.398Z,18.49
2023-07-24T06:35:10.137Z,18.57
2023-07-24T06:37:36.877Z,18.71
2023-07-24T06:40:03.984Z,18.65
2023-07-24T06:42:30.806Z,18.53
2023-07-24T06:44:57.462Z,18.46
2023-07-24T06:47:24.104Z,18.51
2023-07-24T06:49:51.152Z,18.51
2023-07-24T06:52:17.807Z,18.51
2023-07-24T06:54:44.654Z,18.49
2023-07-24T06:57:11.361Z,18.53
2023-07-24T06:59:38.238Z,18.75
2023-07-24T07:02:05.121Z,18.87
2023-07-24T07:04:31.818Z,18.69
2023-07-24T07:06:58.608Z,18.55
2023-07-24T07:09:25.504Z,18.49
2023-07-24T07:11:52.129Z,18.72
2023-07-24T07:14:18.751Z,18.69
2023-07-24T07:16:45.781Z,18.70
2023-07-24T07:19:12.469Z,18.50
2023-07-24T07:21:39.067Z,18.37
2023-07-24T07:24:06.122Z,18.52
2023-07-24T07:26:33.103Z,18.82
2023-07-24T07:29:00.793Z,19.32
2023-07-24T07:31:27.525Z,19.35
2023-07-24T07:33:54.286Z,19.86
2023-07-24T07:36:23.129Z,20.10
2023-07-24T07:38:50.290Z,20.11
2023-07-24T07:41:17.030Z,19.98
2023-07-24T07:43:43.738Z,19.88
2023-07-24T07:46:10.335Z,19.89
2023-07-24T07:48:37.021Z,19.59
2023-07-24T07:51:03.911Z,19.44
2023-07-24T07:53:30.645Z,19.83
2023-07-24T07:56:03.166Z,19.85
2023-07-24T07:58:30.006Z,20.85
2023-07-24T08:00:56.855Z,21.52
2023-07-24T08:03:23.811Z,21.43
2023-07-24T08:05:50.660Z,20.81
2023-07-24T08:08:17.311Z,20.35
2023-07-24T08:10:44.019Z,20.02
2023-07-24T08:13:10.713Z,20.07
2023-07-24T08:15:38.677Z,19.97
2023-07-24T08:18:08.765Z,19.96
2023-07-24T08:20:39.727Z,19.78
2023-07-24T08:23:06.420Z,19.92
2023-07-24T08:25:33.055Z,20.09
2023-07-24T08:28:05.848Z,20.28
2023-07-24T08:30:35.336Z,20.50
2023-07-24T08:33:02.266Z,20.76
2023-07-24T08:35:29.312Z,21.39
2023-07-24T08:37:56.011Z,21.43
2023-07-24T08:40:22.928Z,21.05
2023-07-24T08:42:51.683Z,20.50
2023-07-24T08:45:19.578Z,20.10
2023-07-24T08:47:46.547Z,19.78
2023-07-24T08:50:14.560Z,19.74
2023-07-24T08:52:41.311Z,19.79
2023-07-24T08:55:09.030Z,19.90
2023-07-24T08:57:36.348Z,20.06
2023-07-24T09:00:06.265Z,20.25
2023-07-24T09:02:35.047Z,20.45
2023-07-24T09:05:02.215Z,20.31
2023-07-24T09:07:31.059Z,20.43
2023-07-24T09:09:57.925Z,20.18
2023-07-24T09:12:25.260Z,20.08
2023-07-24T09:15:04.036Z,20.03
2023-07-24T09:17:30.807Z,19.96
2023-07-24T09:20:03.145Z,19.88
2023-07-24T09:22:29.944Z,19.96
2023-07-24T09:24:58.354Z,19.95
2023-07-24T09:27:32.358Z,19.87
2023-07-24T09:29:59.731Z,19.96
2023-07-24T09:32:28.323Z,20.08
2023-07-24T09:34:55.873Z,20.14
2023-07-24T09:37:31.855Z,20.32
2023-07-24T09:40:00.328Z,20.40
2023-07-24T09:42:33.593Z,20.62
2023-07-24T09:45:01.139Z,20.73
2023-07-24T09:47:51.152Z,21.02
2023-07-24T09:50:14.579Z,21.31
2023-07-24T09:52:43.143Z,21.23
2023-07-24T09:55:20.577Z,21.05
2023-07-24T09:57:47.993Z,20.49
2023-07-24T10:00:15.472Z,20.29
2023-07-24T10:02:43.062Z,20.53
2023-07-24T10:05:09.955Z,20.41
2023-07-24T10:07:37.381Z,20.26
2023-07-24T10:10:04.291Z,20.05
2023-07-24T10:12:32.437Z,20.02
2023-07-24T10:15:00.866Z,19.86
2023-07-24T10:17:39.094Z,19.83
2023-07-24T10:20:07.930Z,19.98
2023-07-24T10:22:34.779Z,20.02
2023-07-24T10:25:01.640Z,20.20
2023-07-24T10:27:29.460Z,20.23
2023-07-24T10:30:14.760Z,20.17
2023-07-24T10:32:54.182Z,20.46
2023-07-24T10:35:24.051Z,20.94
2023-07-24T10:38:00.475Z,21.43
2023-07-24T10:40:27.305Z,22.77
2023-07-24T10:43:21.966Z,22.97
2023-07-24T10:45:54.972Z,22.81
2023-07-24T10:48:23.467Z,22.57
2023-07-24T10:50:53.750Z,22.09
2023-07-24T10:53:23.730Z,22.12
2023-07-24T10:55:52.182Z,22.83
2023-07-24T10:58:19.006Z,22.53
2023-07-24T11:00:46.888Z,22.26
2023-07-24T11:03:14.586Z,22.39
2023-07-24T11:05:42.816Z,22.61
2023-07-24T11:08:17.718Z,23.08
2023-07-24T11:10:56.385Z,23.54
2023-07-24T11:13:25.526Z,23.66
2023-07-24T11:15:53.691Z,24.08
2023-07-24T11:18:34.332Z,24.33
2023-07-24T11:21:04.410Z,24.31
2023-07-24T11:23:31.010Z,23.76
2023-07-24T11:25:57.724Z,24.05
2023-07-24T11:28:24.394Z,25.13
2023-07-24T11:30:52.778Z,26.02
2023-07-24T11:33:20.421Z,26.47
2023-07-24T11:35:47.521Z,27.22
2023-07-24T11:38:15.030Z,26.68
2023-07-24T11:40:45.653Z,25.21
2023-07-24T11:43:22.716Z,25.13
2023-07-24T11:45:53.467Z,25.40
2023-07-24T11:48:25.621Z,25.06
2023-07-24T11:50:55.920Z,24.62
2023-07-24T11:53:32.983Z,24.44
2023-07-24T11:56:04.864Z,24.69
2023-07-24T11:58:36.115Z,26.02
2023-07-24T12:01:02.825Z,25.46
2023-07-24T12:03:30.918Z,24.75
2023-07-24T12:05:57.950Z,23.78
2023-07-24T12:08:32.666Z,23.01
2023-07-24T12:10:59.642Z,22.75
2023-07-24T12:13:26.359Z,22.47
2023-07-24T12:15:53.028Z,22.68
2023-07-24T12:18:19.754Z,23.17
2023-07-24T12:20:46.576Z,23.49
2023-07-24T12:23:13.184Z,23.27
2023-07-24T12:25:39.867Z,22.99
2023-07-24T12:28:06.479Z,22.95
2023-07-24T12:30:33.060Z,23.06
2023-07-24T12:33:00.005Z,23.51
2023-07-24T12:35:26.685Z,23.29
2023-07-24T12:37:53.390Z,24.51
2023-07-24T12:40:19.966Z,24.37
2023-07-24T12:42:46.674Z,23.57
2023-07-24T12:45:13.372Z,23.61
2023-07-24T12:47:39.988Z,23.01
2023-07-24T12:50:08.494Z,22.76
2023-07-24T12:52:35.669Z,22.78
2023-07-24T12:55:03.139Z,22.95
2023-07-24T12:57:30.357Z,23.08
2023-07-24T12:59:57.237Z,23.19
2023-07-24T13:02:24.086Z,22.70
2023-07-24T13:04:50.708Z,22.53
2023-07-24T13:07:17.417Z,22.42
2023-07-24T13:09:44.128Z,22.21
2023-07-24T13:12:11.435Z,21.86
2023-07-24T13:14:40.218Z,21.78
2023-07-24T13:17:09.445Z,21.90
2023-07-24T13:19:36.137Z,21.55
2023-07-24T13:22:02.851Z,21.46
2023-07-24T13:24:29.617Z,21.39
2023-07-24T13:26:56.234Z,21.62
2023-07-24T13:29:25.516Z,21.73
2023-07-24T13:31:55.956Z,21.70
2023-07-24T13:34:25.133Z,22.02
2023-07-24T13:36:51.990Z,22.16
2023-07-24T13:39:18.706Z,22.24
2023-07-24T13:41:45.362Z,22.34
2023-07-24T13:44:12.074Z,22.57
2023-07-24T13:46:40.374Z,22.55
2023-07-24T13:49:07.992Z,22.35
2023-07-24T13:51:34.658Z,22.30
2023-07-24T13:54:02.994Z,22.26
2023-07-24T13:56:32.431Z,22.28
2023-07-24T13:58:59.507Z,22.53
2023-07-24T14:01:26.421Z,22.79
2023-07-24T14:03:53.477Z,23.21
2023-07-24T14:06:20.223Z,23.02
2023-07-24T14:08:46.830Z,23.11
2023-07-24T14:11:13.484Z,23.42
2023-07-24T14:13:40.188Z,24.97
2023-07-24T14:16:06.844Z,27.04
2023-07-24T14:18:33.548Z,28.20
2023-07-24T14:21:00.838Z,29.21
2023-07-24T14:23:27.813Z,29.07
2023-07-24T14:25:54.675Z,29.02
2023-07-24T14:28:21.612Z,27.73
2023-07-24T14:30:48.536Z,27.12
2023-07-24T14:33:15.304Z,28.84
2023-07-24T14:35:42.080Z,28.98
2023-07-24T14:38:08.779Z,27.97
2023-07-24T14:40:35.770Z,28.00
2023-07-24T14:43:05.558Z,26.17
2023-07-24T14:45:34.596Z,25.21
2023-07-24T14:48:01.456Z,24.49
2023-07-24T14:50:28.330Z,24.04
2023-07-24T14:52:55.014Z,24.72
2023-07-24T14:55:22.682Z,25.29
2023-07-24T14:57:49.937Z,24.63
2023-07-24T15:00:17.555Z,24.29
2023-07-24T15:02:44.752Z,26.17
2023-07-24T15:05:11.945Z,25.67
2023-07-24T15:07:38.998Z,24.87
2023-07-24T15:10:07.016Z,24.14
2023-07-24T15:12:33.558Z,23.75
2023-07-24T15:15:00.200Z,23.88
2023-07-24T15:17:26.900Z,25.31
2023-07-24T15:19:53.587Z,26.42
2023-07-24T15:22:20.257Z,25.64
2023-07-24T15:24:47.003Z,24.94
2023-07-24T15:27:13.779Z,24.42
2023-07-24T15:29:40.527Z,24.02
2023-07-24T15:32:07.957Z,23.70
2023-07-24T15:34:36.624Z,23.26
2023-07-24T15:37:05.790Z,25.01
2023-07-24T15:39:32.405Z,25.45
2023-07-24T15:41:59.154Z,25.68
2023-07-24T15:44:25.847Z,25.65
2023-07-24T15:46:52.796Z,25.33
2023-07-24T15:49:19.584Z,25.90
2023-07-24T15:51:46.346Z,26.81
2023-07-24T15:54:13.009Z,26.82
2023-07-24T15:56:40.455Z,26.05
2023-07-24T15:59:07.611Z,25.21
2023-07-24T16:01:34.806Z,24.57
2023-07-24T16:04:01.833Z,24.35
2023-07-24T16:06:28.928Z,24.53
2023-07-24T16:08:55.655Z,23.97
2023-07-24T16:11:22.388Z,23.53
2023-07-24T16:13:49.011Z,24.27
2023-07-24T16:16:16.026Z,23.68
2023-07-24T16:18:42.793Z,23.26
2023-07-24T16:21:09.493Z,22.79
2023-07-24T16:23:36.289Z,22.52
2023-07-24T16:26:03.043Z,22.33
2023-07-24T16:28:29.666Z,22.22
2023-07-24T16:30:59.056Z,22.18
2023-07-24T16:33:26.061Z,22.01
2023-07-24T16:35:53.902Z,21.92
2023-07-24T16:38:20.592Z,21.68
2023-07-24T16:40:47.421Z,20.93
2023-07-24T16:43:14.193Z,20.48
2023-07-24T16:45:40.937Z,20.11
2023-07-24T16:48:07.785Z,19.78
2023-07-24T16:50:36.555Z,19.59
2023-07-24T16:53:04.445Z,19.61
2023-07-24T16:55:32.141Z,19.74
2023-07-24T16:57:58.809Z,19.72
2023-07-24T17:00:25.923Z,19.56
2023-07-24T17:02:52.654Z,19.41
2023-07-24T17:05:19.501Z,19.27
2023-07-24T17:07:46.236Z,19.22
2023-07-24T17:10:13.045Z,19.02
2023-07-24T17:12:39.785Z,18.83
2023-07-24T17:15:06.939Z,18.72
2023-07-24T17:17:34.111Z,18.57
2023-07-24T17:20:01.051Z,18.43
2023-07-24T17:22:27.767Z,18.29
2023-07-24T17:24:54.490Z,18.20
2023-07-24T17:27:21.277Z,18.14
2023-07-24T17:29:49.087Z,18.05
2023-07-24T17:32:19.609Z,17.73
2023-07-24T17:34:46.241Z,16.95
2023-07-24T17:37:21.212Z,15.92
2023-07-24T17:39:55.478Z,15.65
2023-07-24T17:42:22.208Z,15.49
2023-07-24T17:44:48.988Z,15.39
2023-07-24T17:47:15.649Z,15.33
2023-07-24T17:49:47.615Z,15.29
2023-07-24T17:52:25.131Z,15.37
2023-07-24T17:54:51.847Z,15.55
2023-07-24T17:57:18.493Z,15.64
2023-07-24T17:59:45.346Z,15.71
2023-07-24T18:02:12.365Z,15.74
2023-07-24T18:04:39.339Z,15.80
2023-07-24T18:07:06.229Z,15.78
2023-07-24T18:09:32.853Z,15.78
2023-07-24T18:11:59.700Z,15.79
2023-07-24T18:14:26.389Z,15.86
2023-07-24T18:16:53.147Z,15.86
2023-07-24T18:19:19.847Z,15.83
2023-07-24T18:21:46.535Z,15.74
2023-07-24T18:24:13.676Z,15.70
2023-07-24T18:26:40.363Z,15.69
2023-07-24T18:29:06.946Z,15.68
2023-07-24T18:31:33.686Z,15.66
2023-07-24T18:34:00.741Z,15.61
2023-07-24T18:36:27.430Z,15.57
2023-07-24T18:38:54.043Z,15.56
2023-07-24T18:41:20.699Z,15.53
2023-07-24T18:43:47.310Z,15.53
2023-07-24T18:46:14.075Z,15.55
2023-07-24T18:48:40.824Z,15.52
2023-07-24T18:51:09.492Z,15.39
2023-07-24T18:53:36.148Z,15.53
2023-07-24T18:56:02.855Z,15.61
2023-07-24T18:58:29.592Z,15.51
2023-07-24T19:00:56.333Z,15.40
2023-07-24T19:03:23.459Z,15.39
2023-07-24T19:05:50.206Z,15.43
2023-07-24T19:08:16.854Z,15.41
2023-07-24T19:10:43.561Z,15.34
2023-07-24T19:13:10.280Z,15.54
2023-07-24T19:15:36.952Z,15.41
2023-07-24T19:18:04.195Z,15.30
2023-07-24T19:20:31.769Z,15.17
2023-07-24T19:22:58.709Z,15.06
2023-07-24T19:25:25.390Z,14.98
2023-07-24T19:27:52.079Z,14.97
2023-07-24T19:30:18.771Z,14.99
2023-07-24T19:32:46.534Z,14.98
2023-07-24T19:35:13.269Z,14.95
2023-07-24T19:37:41.720Z,14.92
2023-07-24T19:40:09.107Z,14.92
2023-07-24T19:42:35.860Z,14.88
2023-07-24T19:45:02.479Z,14.86
2023-07-24T19:47:29.183Z,14.85
2023-07-24T19:49:55.851Z,14.82
2023-07-24T19:52:23.938Z,14.78
2023-07-24T19:54:52.013Z,14.70
2023-07-24T19:57:18.834Z,14.73
2023-07-24T19:59:45.548Z,14.73
2023-07-24T20:02:12.585Z,14.68
2023-07-24T20:04:39.334Z,14.69
2023-07-24T20:07:06.529Z,14.67
2023-07-24T20:09:33.176Z,14.68
2023-07-24T20:11:59.808Z,14.69
2023-07-24T20:14:26.506Z,14.64
2023-07-24T20:16:53.250Z,14.63
2023-07-24T20:19:20.055Z,14.61
2023-07-24T20:21:46.734Z,14.51
2023-07-24T20:24:14.001Z,14.55
2023-07-24T20:26:40.951Z,14.63
2023-07-24T20:29:07.888Z,14.62
2023-07-24T20:31:34.815Z,14.58
2023-07-24T20:34:01.719Z,14.59
2023-07-24T20:36:28.395Z,14.57
2023-07-24T20:38:55.114Z,14.57
2023-07-24T20:41:21.745Z,14.63
2023-07-24T20:43:48.388Z,14.67
2023-07-24T20:46:16.735Z,14.70
2023-07-24T20:48:44.081Z,14.73
2023-07-24T20:51:18.910Z,14.69
2023-07-24T20:53:45.822Z,14.73
2023-07-24T20:56:12.768Z,14.71
2023-07-24T20:58:40.110Z,14.73
2023-07-24T21:01:08.441Z,14.74
2023-07-24T21:03:35.292Z,14.73
2023-07-24T21:06:02.283Z,14.74
2023-07-24T21:08:28.927Z,14.78
2023-07-24T21:10:55.558Z,14.82
2023-07-24T21:13:22.565Z,14.83
2023-07-24T21:15:51.420Z,14.86
2023-07-24T21:18:19.243Z,14.87
2023-07-24T21:20:47.108Z,14.87
2023-07-24T21:23:15.003Z,14.90
2023-07-24T21:26:01.922Z,14.90
2023-07-24T21:28:28.692Z,14.88
2023-07-24T21:30:55.440Z,14.88
2023-07-24T21:33:22.222Z,14.90
2023-07-24T21:36:02.084Z,14.87
2023-07-24T21:38:29.045Z,14.83
2023-07-24T21:40:55.911Z,14.82
2023-07-24T21:43:23.069Z,14.82
2023-07-24T21:45:50.669Z,14.85
2023-07-24T21:48:17.908Z,14.83
2023-07-24T21:50:48.361Z,14.82
2023-07-24T21:53:15.070Z,14.80
2023-07-24T21:55:41.860Z,14.80
2023-07-24T21:58:08.653Z,14.78
2023-07-24T22:00:36.130Z,14.79
2023-07-24T22:03:03.034Z,14.75
2023-07-24T22:05:29.855Z,14.74
2023-07-24T22:07:56.685Z,14.72
2023-07-24T22:10:23.735Z,14.74
2023-07-24T22:12:50.934Z,14.71
2023-07-24T22:15:17.612Z,14.75
2023-07-24T22:17:44.570Z,14.78
2023-07-24T22:20:17.138Z,14.78
2023-07-24T22:22:53.908Z,14.77
2023-07-24T22:25:20.660Z,14.78
2023-07-24T22:27:47.717Z,14.82
2023-07-24T22:30:15.633Z,14.84
2023-07-24T22:32:42.346Z,14.84
2023-07-24T22:35:09.356Z,14.84
2023-07-24T22:37:35.970Z,14.86
2023-07-24T22:40:02.711Z,14.91
2023-07-24T22:42:29.380Z,14.94
2023-07-24T22:44:55.971Z,14.94
2023-07-24T22:47:22.945Z,14.92
2023-07-24T22:49:49.767Z,14.90
2023-07-24T22:52:16.403Z,14.86
2023-07-24T22:54:43.077Z,14.83
2023-07-24T22:57:09.740Z,14.76
2023-07-24T22:59:36.410Z,14.72
2023-07-24T23:02:03.151Z,14.67
2023-07-24T23:04:29.735Z,14.61
2023-07-24T23:06:56.850Z,14.55
2023-07-24T23:09:24.138Z,14.49
2023-07-24T23:11:50.795Z,14.47
2023-07-24T23:14:17.533Z,14.47
2023-07-24T23:16:44.399Z,14.45
2023-07-24T23:19:11.395Z,14.43
2023-07-24T23:21:38.021Z,14.39
2023-07-24T23:24:05.393Z,14.36
2023-07-24T23:26:32.011Z,14.34
2023-07-24T23:28:59.667Z,14.35
2023-07-24T23:31:26.447Z,14.37
2023-07-24T23:33:53.235Z,14.37
2023-07-24T23:36:19.971Z,14.37
2023-07-24T23:38:46.739Z,14.34
2023-07-24T23:41:14.192Z,14.32
2023-07-24T23:43:40.858Z,14.29
2023-07-24T23:46:12.457Z,14.26
2023-07-24T23:48:40.054Z,14.26
2023-07-24T23:51:17.395Z,14.17
2023-07-24T23:53:44.745Z,14.07
2023-07-24T23:56:11.466Z,13.92
2023-07-24T23:58:38.268Z,13.83
